sensor_id;sensor_type;location;lat;lon;timestamp;P1;durP1;ratioP1;P2;durP2;ratioP2
4704;SDS011;2366;51.332;6.610;2023-01-28T00:01:37;10.10;;;8.63;;
4704;SDS011;2366;51.332;6.610;2023-01-28T00:04:03;10.48;;;9.05;;
4704;SDS011;2366;51.332;6.610;2023-01-28T00:06:28;10.80;;;8.07;;
4704;SDS011;2366;51.332;6.610;2023-01-28T00:08:53;10.47;;;9.37;;
4704;SDS011;2366;51.332;6.610;2023-01-28T00:11:19;11.43;;;10.23;;
4704;SDS011;2366;51.332;6.610;2023-01-28T00:13:49;14.95;;;10.07;;
4704;SDS011;2366;51.332;6.610;2023-01-28T00:16:15;13.68;;;11.55;;
4704;SDS011;2366;51.332;6.610;2023-01-28T00:18:41;14.73;;;9.40;;
4704;SDS011;2366;51.332;6.610;2023-01-28T00:23:34;14.48;;;9.23;;
4704;SDS011;2366;51.332;6.610;2023-01-28T00:26:02;11.13;;;8.15;;
4704;SDS011;2366;51.332;6.610;2023-01-28T00:28:29;12.57;;;10.40;;
4704;SDS011;2366;51.332;6.610;2023-01-28T00:30:54;11.43;;;9.70;;
4704;SDS011;2366;51.332;6.610;2023-01-28T00:33:20;15.00;;;10.82;;
4704;SDS011;2366;51.332;6.610;2023-01-28T00:35:46;14.87;;;11.03;;
4704;SDS011;2366;51.332;6.610;2023-01-28T00:38:11;13.77;;;11.00;;
4704;SDS011;2366;51.332;6.610;2023-01-28T00:40:37;13.53;;;10.97;;
4704;SDS011;2366;51.332;6.610;2023-01-28T00:43:02;11.70;;;9.90;;
4704;SDS011;2366;51.332;6.610;2023-01-28T00:45:28;12.37;;;9.30;;
4704;SDS011;2366;51.332;6.610;2023-01-28T00:47:53;11.30;;;10.13;;
4704;SDS011;2366;51.332;6.610;2023-01-28T00:50:19;11.47;;;10.30;;
4704;SDS011;2366;51.332;6.610;2023-01-28T00:52:45;13.05;;;9.75;;
4704;SDS011;2366;51.332;6.610;2023-01-28T00:55:11;13.77;;;9.77;;
4704;SDS011;2366;51.332;6.610;2023-01-28T00:57:37;14.50;;;11.77;;
4704;SDS011;2366;51.332;6.610;2023-01-28T01:00:03;12.50;;;10.10;;
4704;SDS011;2366;51.332;6.610;2023-01-28T01:02:29;12.30;;;10.52;;
4704;SDS011;2366;51.332;6.610;2023-01-28T01:04:54;12.97;;;10.37;;
4704;SDS011;2366;51.332;6.610;2023-01-28T01:07:23;13.43;;;10.65;;
4704;SDS011;2366;51.332;6.610;2023-01-28T01:10:08;14.40;;;9.93;;
4704;SDS011;2366;51.332;6.610;2023-01-28T01:12:37;15.57;;;10.02;;
4704;SDS011;2366;51.332;6.610;2023-01-28T01:15:03;15.90;;;12.32;;
4704;SDS011;2366;51.332;6.610;2023-01-28T01:17:35;15.73;;;11.70;;
4704;SDS011;2366;51.332;6.610;2023-01-28T01:20:02;18.10;;;13.48;;
4704;SDS011;2366;51.332;6.610;2023-01-28T01:22:31;13.98;;;11.98;;
4704;SDS011;2366;51.332;6.610;2023-01-28T01:25:00;16.42;;;12.30;;
4704;SDS011;2366;51.332;6.610;2023-01-28T01:27:27;16.02;;;11.93;;
4704;SDS011;2366;51.332;6.610;2023-01-28T01:29:53;21.23;;;14.90;;
4704;SDS011;2366;51.332;6.610;2023-01-28T01:32:18;15.70;;;12.00;;
4704;SDS011;2366;51.332;6.610;2023-01-28T01:34:44;21.50;;;11.67;;
4704;SDS011;2366;51.332;6.610;2023-01-28T01:37:09;12.50;;;10.63;;
4704;SDS011;2366;51.332;6.610;2023-01-28T01:39:35;19.80;;;11.93;;
4704;SDS011;2366;51.332;6.610;2023-01-28T01:42:01;15.43;;;11.57;;
4704;SDS011;2366;51.332;6.610;2023-01-28T01:47:18;15.98;;;12.82;;
4704;SDS011;2366;51.332;6.610;2023-01-28T01:49:47;19.58;;;13.60;;
4704;SDS011;2366;51.332;6.610;2023-01-28T01:52:14;17.30;;;12.43;;
4704;SDS011;2366;51.332;6.610;2023-01-28T01:54:46;24.10;;;13.43;;
4704;SDS011;2366;51.332;6.610;2023-01-28T01:57:16;16.20;;;12.77;;
4704;SDS011;2366;51.332;6.610;2023-01-28T01:59:48;17.55;;;13.40;;
4704;SDS011;2366;51.332;6.610;2023-01-28T02:02:14;21.07;;;15.33;;
4704;SDS011;2366;51.332;6.610;2023-01-28T02:04:41;24.83;;;15.95;;
4704;SDS011;2366;51.332;6.610;2023-01-28T02:07:09;19.38;;;12.73;;
4704;SDS011;2366;51.332;6.610;2023-01-28T02:09:36;20.65;;;14.73;;
4704;SDS011;2366;51.332;6.610;2023-01-28T02:12:13;22.98;;;15.68;;
4704;SDS011;2366;51.332;6.610;2023-01-28T02:14:50;20.42;;;16.05;;
4704;SDS011;2366;51.332;6.610;2023-01-28T02:17:19;16.05;;;13.45;;
4704;SDS011;2366;51.332;6.610;2023-01-28T02:19:59;18.45;;;13.18;;
4704;SDS011;2366;51.332;6.610;2023-01-28T02:22:39;14.60;;;11.40;;
4704;SDS011;2366;51.332;6.610;2023-01-28T02:30:39;10.88;;;9.07;;
4704;SDS011;2366;51.332;6.610;2023-01-28T02:33:13;11.45;;;8.40;;
4704;SDS011;2366;51.332;6.610;2023-01-28T02:35:53;7.95;;;7.15;;
4704;SDS011;2366;51.332;6.610;2023-01-28T02:38:21;5.88;;;5.38;;
4704;SDS011;2366;51.332;6.610;2023-01-28T02:40:53;7.75;;;6.47;;
4704;SDS011;2366;51.332;6.610;2023-01-28T02:43:34;6.78;;;5.85;;
4704;SDS011;2366;51.332;6.610;2023-01-28T02:46:07;7.35;;;6.65;;
4704;SDS011;2366;51.332;6.610;2023-01-28T02:48:58;6.53;;;6.03;;
4704;SDS011;2366;51.332;6.610;2023-01-28T02:51:28;7.00;;;6.30;;
4704;SDS011;2366;51.332;6.610;2023-01-28T02:54:07;7.05;;;6.30;;
4704;SDS011;2366;51.332;6.610;2023-01-28T02:59:06;10.30;;;7.90;;
4704;SDS011;2366;51.332;6.610;2023-01-28T03:01:56;8.57;;;7.88;;
4704;SDS011;2366;51.332;6.610;2023-01-28T03:04:28;7.80;;;7.05;;
4704;SDS011;2366;51.332;6.610;2023-01-28T03:07:00;10.30;;;8.63;;
4704;SDS011;2366;51.332;6.610;2023-01-28T03:09:29;11.63;;;8.73;;
4704;SDS011;2366;51.332;6.610;2023-01-28T03:14:41;12.68;;;10.40;;
4704;SDS011;2366;51.332;6.610;2023-01-28T03:20:46;10.57;;;9.52;;
4704;SDS011;2366;51.332;6.610;2023-01-28T03:23:42;9.95;;;8.82;;
4704;SDS011;2366;51.332;6.610;2023-01-28T03:26:50;12.43;;;9.40;;
4704;SDS011;2366;51.332;6.610;2023-01-28T03:29:37;10.70;;;9.43;;
4704;SDS011;2366;51.332;6.610;2023-01-28T03:32:24;16.33;;;9.68;;
4704;SDS011;2366;51.332;6.610;2023-01-28T03:35:08;14.27;;;10.02;;
4704;SDS011;2366;51.332;6.610;2023-01-28T03:37:55;11.05;;;9.85;;
4704;SDS011;2366;51.332;6.610;2023-01-28T03:40:23;10.75;;;9.45;;
4704;SDS011;2366;51.332;6.610;2023-01-28T03:42:49;9.80;;;8.23;;
4704;SDS011;2366;51.332;6.610;2023-01-28T03:45:16;10.02;;;8.60;;
4704;SDS011;2366;51.332;6.610;2023-01-28T03:47:41;10.57;;;9.53;;
4704;SDS011;2366;51.332;6.610;2023-01-28T03:50:08;15.70;;;8.50;;
4704;SDS011;2366;51.332;6.610;2023-01-28T03:52:34;15.10;;;9.50;;
4704;SDS011;2366;51.332;6.610;2023-01-28T03:54:59;9.27;;;8.30;;
4704;SDS011;2366;51.332;6.610;2023-01-28T03:57:25;9.00;;;8.10;;
4704;SDS011;2366;51.332;6.610;2023-01-28T03:59:52;10.52;;;8.90;;
4704;SDS011;2366;51.332;6.610;2023-01-28T04:02:21;11.63;;;8.65;;
4704;SDS011;2366;51.332;6.610;2023-01-28T04:04:47;13.52;;;10.00;;
4704;SDS011;2366;51.332;6.610;2023-01-28T04:07:14;12.20;;;9.85;;
4704;SDS011;2366;51.332;6.610;2023-01-28T04:09:40;16.17;;;9.97;;
4704;SDS011;2366;51.332;6.610;2023-01-28T04:12:06;9.45;;;8.45;;
4704;SDS011;2366;51.332;6.610;2023-01-28T04:14:32;13.43;;;10.40;;
4704;SDS011;2366;51.332;6.610;2023-01-28T04:16:58;12.43;;;9.20;;
4704;SDS011;2366;51.332;6.610;2023-01-28T04:19:23;11.50;;;8.97;;
4704;SDS011;2366;51.332;6.610;2023-01-28T04:21:49;13.55;;;9.32;;
4704;SDS011;2366;51.332;6.610;2023-01-28T04:24:18;23.50;;;10.02;;
4704;SDS011;2366;51.332;6.610;2023-01-28T04:26:43;11.63;;;9.33;;
4704;SDS011;2366;51.332;6.610;2023-01-28T04:29:09;13.60;;;10.37;;
4704;SDS011;2366;51.332;6.610;2023-01-28T04:31:34;12.43;;;8.73;;
4704;SDS011;2366;51.332;6.610;2023-01-28T04:34:00;11.53;;;9.20;;
4704;SDS011;2366;51.332;6.610;2023-01-28T04:36:25;12.40;;;9.57;;
4704;SDS011;2366;51.332;6.610;2023-01-28T04:38:51;10.13;;;8.70;;
4704;SDS011;2366;51.332;6.610;2023-01-28T04:41:17;12.60;;;9.60;;
4704;SDS011;2366;51.332;6.610;2023-01-28T04:43:42;9.73;;;8.00;;
4704;SDS011;2366;51.332;6.610;2023-01-28T04:46:08;9.57;;;8.67;;
4704;SDS011;2366;51.332;6.610;2023-01-28T04:48:33;13.73;;;8.70;;
4704;SDS011;2366;51.332;6.610;2023-01-28T04:51:00;10.88;;;9.77;;
4704;SDS011;2366;51.332;6.610;2023-01-28T04:53:26;11.97;;;9.63;;
4704;SDS011;2366;51.332;6.610;2023-01-28T04:55:51;10.07;;;9.07;;
4704;SDS011;2366;51.332;6.610;2023-01-28T05:00:44;14.65;;;9.10;;
4704;SDS011;2366;51.332;6.610;2023-01-28T05:03:09;17.07;;;10.70;;
4704;SDS011;2366;51.332;6.610;2023-01-28T05:05:35;14.00;;;10.80;;
4704;SDS011;2366;51.332;6.610;2023-01-28T05:08:00;12.10;;;10.30;;
4704;SDS011;2366;51.332;6.610;2023-01-28T05:10:26;17.77;;;13.23;;
4704;SDS011;2366;51.332;6.610;2023-01-28T05:12:52;24.08;;;14.45;;
4704;SDS011;2366;51.332;6.610;2023-01-28T05:15:18;20.80;;;15.40;;
4704;SDS011;2366;51.332;6.610;2023-01-28T05:17:44;16.20;;;13.40;;
4704;SDS011;2366;51.332;6.610;2023-01-28T05:20:13;18.10;;;13.50;;
4704;SDS011;2366;51.332;6.610;2023-01-28T05:22:39;19.98;;;12.43;;
4704;SDS011;2366;51.332;6.610;2023-01-28T05:25:05;20.05;;;14.75;;
4704;SDS011;2366;51.332;6.610;2023-01-28T05:27:31;19.73;;;14.02;;
4704;SDS011;2366;51.332;6.610;2023-01-28T05:29:57;18.47;;;14.50;;
4704;SDS011;2366;51.332;6.610;2023-01-28T05:32:23;16.00;;;11.57;;
4704;SDS011;2366;51.332;6.610;2023-01-28T05:34:49;18.63;;;12.57;;
4704;SDS011;2366;51.332;6.610;2023-01-28T05:37:14;19.40;;;13.80;;
4704;SDS011;2366;51.332;6.610;2023-01-28T05:39:40;19.17;;;13.93;;
4704;SDS011;2366;51.332;6.610;2023-01-28T05:42:05;21.20;;;13.83;;
4704;SDS011;2366;51.332;6.610;2023-01-28T05:44:30;23.73;;;14.17;;
4704;SDS011;2366;51.332;6.610;2023-01-28T05:46:56;23.00;;;15.03;;
4704;SDS011;2366;51.332;6.610;2023-01-28T05:49:21;24.57;;;14.73;;
4704;SDS011;2366;51.332;6.610;2023-01-28T05:51:46;20.13;;;14.70;;
4704;SDS011;2366;51.332;6.610;2023-01-28T05:54:12;22.60;;;15.73;;
4704;SDS011;2366;51.332;6.610;2023-01-28T05:56:38;22.25;;;14.75;;
4704;SDS011;2366;51.332;6.610;2023-01-28T05:59:04;25.30;;;14.48;;
4704;SDS011;2366;51.332;6.610;2023-01-28T06:01:30;19.73;;;14.03;;
4704;SDS011;2366;51.332;6.610;2023-01-28T06:03:55;20.67;;;14.10;;
4704;SDS011;2366;51.332;6.610;2023-01-28T06:06:21;20.07;;;13.77;;
4704;SDS011;2366;51.332;6.610;2023-01-28T06:08:46;25.50;;;16.03;;
4704;SDS011;2366;51.332;6.610;2023-01-28T06:11:12;32.53;;;19.27;;
4704;SDS011;2366;51.332;6.610;2023-01-28T06:13:37;24.40;;;15.43;;
4704;SDS011;2366;51.332;6.610;2023-01-28T06:16:03;25.33;;;17.00;;
4704;SDS011;2366;51.332;6.610;2023-01-28T06:18:28;21.03;;;14.83;;
4704;SDS011;2366;51.332;6.610;2023-01-28T06:20:54;23.40;;;15.43;;
4704;SDS011;2366;51.332;6.610;2023-01-28T06:23:19;25.83;;;14.80;;
4704;SDS011;2366;51.332;6.610;2023-01-28T06:25:44;22.00;;;15.13;;
4704;SDS011;2366;51.332;6.610;2023-01-28T06:28:10;21.80;;;14.33;;
4704;SDS011;2366;51.332;6.610;2023-01-28T06:30:36;21.80;;;14.53;;
4704;SDS011;2366;51.332;6.610;2023-01-28T06:33:01;20.80;;;14.40;;
4704;SDS011;2366;51.332;6.610;2023-01-28T06:35:27;20.47;;;12.93;;
4704;SDS011;2366;51.332;6.610;2023-01-28T06:37:52;20.30;;;12.93;;
4704;SDS011;2366;51.332;6.610;2023-01-28T06:40:18;21.87;;;14.03;;
4704;SDS011;2366;51.332;6.610;2023-01-28T06:42:44;23.03;;;15.23;;
4704;SDS011;2366;51.332;6.610;2023-01-28T06:45:09;19.80;;;13.73;;
4704;SDS011;2366;51.332;6.610;2023-01-28T06:47:35;24.23;;;15.47;;
4704;SDS011;2366;51.332;6.610;2023-01-28T06:50:02;24.90;;;15.30;;
4704;SDS011;2366;51.332;6.610;2023-01-28T06:52:28;28.40;;;17.33;;
4704;SDS011;2366;51.332;6.610;2023-01-28T06:54:53;26.83;;;16.10;;
4704;SDS011;2366;51.332;6.610;2023-01-28T06:57:18;25.33;;;16.70;;
4704;SDS011;2366;51.332;6.610;2023-01-28T06:59:44;20.40;;;14.70;;
4704;SDS011;2366;51.332;6.610;2023-01-28T07:02:10;22.47;;;16.10;;
4704;SDS011;2366;51.332;6.610;2023-01-28T07:04:35;23.80;;;16.60;;
4704;SDS011;2366;51.332;6.610;2023-01-28T07:07:01;20.70;;;15.63;;
4704;SDS011;2366;51.332;6.610;2023-01-28T07:09:26;26.67;;;16.70;;
4704;SDS011;2366;51.332;6.610;2023-01-28T07:11:52;27.03;;;16.60;;
4704;SDS011;2366;51.332;6.610;2023-01-28T07:14:17;27.63;;;17.23;;
4704;SDS011;2366;51.332;6.610;2023-01-28T07:16:42;21.50;;;14.53;;
4704;SDS011;2366;51.332;6.610;2023-01-28T07:19:08;24.73;;;14.50;;
4704;SDS011;2366;51.332;6.610;2023-01-28T07:21:33;24.90;;;15.60;;
4704;SDS011;2366;51.332;6.610;2023-01-28T07:23:58;19.27;;;14.80;;
4704;SDS011;2366;51.332;6.610;2023-01-28T07:26:24;23.13;;;13.80;;
4704;SDS011;2366;51.332;6.610;2023-01-28T07:28:49;24.00;;;15.87;;
4704;SDS011;2366;51.332;6.610;2023-01-28T07:31:14;41.63;;;18.13;;
4704;SDS011;2366;51.332;6.610;2023-01-28T07:33:40;26.30;;;18.10;;
4704;SDS011;2366;51.332;6.610;2023-01-28T07:36:05;31.50;;;19.13;;
4704;SDS011;2366;51.332;6.610;2023-01-28T07:38:31;28.97;;;16.87;;
4704;SDS011;2366;51.332;6.610;2023-01-28T07:40:56;35.27;;;18.90;;
4704;SDS011;2366;51.332;6.610;2023-01-28T07:43:21;36.33;;;21.73;;
4704;SDS011;2366;51.332;6.610;2023-01-28T07:45:47;33.43;;;18.53;;
4704;SDS011;2366;51.332;6.610;2023-01-28T07:48:12;34.60;;;21.30;;
4704;SDS011;2366;51.332;6.610;2023-01-28T07:50:38;31.63;;;19.00;;
4704;SDS011;2366;51.332;6.610;2023-01-28T07:53:05;37.28;;;20.00;;
4704;SDS011;2366;51.332;6.610;2023-01-28T07:55:32;28.58;;;19.02;;
4704;SDS011;2366;51.332;6.610;2023-01-28T07:58:00;26.83;;;17.27;;
4704;SDS011;2366;51.332;6.610;2023-01-28T08:00:27;24.55;;;17.25;;
4704;SDS011;2366;51.332;6.610;2023-01-28T08:02:55;25.13;;;16.10;;
4704;SDS011;2366;51.332;6.610;2023-01-28T08:05:22;30.95;;;19.55;;
4704;SDS011;2366;51.332;6.610;2023-01-28T08:07:48;33.60;;;20.40;;
4704;SDS011;2366;51.332;6.610;2023-01-28T08:10:14;37.77;;;21.10;;
4704;SDS011;2366;51.332;6.610;2023-01-28T08:12:41;40.97;;;21.30;;
4704;SDS011;2366;51.332;6.610;2023-01-28T08:15:23;34.00;;;21.38;;
4704;SDS011;2366;51.332;6.610;2023-01-28T08:17:49;35.15;;;20.60;;
4704;SDS011;2366;51.332;6.610;2023-01-28T08:20:17;33.33;;;20.55;;
4704;SDS011;2366;51.332;6.610;2023-01-28T08:22:42;28.60;;;20.90;;
4704;SDS011;2366;51.332;6.610;2023-01-28T08:25:08;32.03;;;20.40;;
4704;SDS011;2366;51.332;6.610;2023-01-28T08:27:33;33.90;;;21.27;;
4704;SDS011;2366;51.332;6.610;2023-01-28T08:29:59;31.10;;;19.70;;
4704;SDS011;2366;51.332;6.610;2023-01-28T08:32:24;31.40;;;20.30;;
4704;SDS011;2366;51.332;6.610;2023-01-28T08:34:49;36.60;;;21.10;;
4704;SDS011;2366;51.332;6.610;2023-01-28T08:37:15;35.50;;;22.10;;
4704;SDS011;2366;51.332;6.610;2023-01-28T08:39:46;29.08;;;18.83;;
4704;SDS011;2366;51.332;6.610;2023-01-28T08:42:15;39.65;;;24.05;;
4704;SDS011;2366;51.332;6.610;2023-01-28T08:44:41;35.15;;;21.17;;
4704;SDS011;2366;51.332;6.610;2023-01-28T08:47:06;33.23;;;21.87;;
4704;SDS011;2366;51.332;6.610;2023-01-28T08:49:31;32.93;;;21.47;;
4704;SDS011;2366;51.332;6.610;2023-01-28T08:51:57;29.70;;;17.93;;
4704;SDS011;2366;51.332;6.610;2023-01-28T08:54:22;29.77;;;19.00;;
4704;SDS011;2366;51.332;6.610;2023-01-28T08:56:47;31.90;;;19.10;;
4704;SDS011;2366;51.332;6.610;2023-01-28T08:59:13;32.90;;;20.93;;
4704;SDS011;2366;51.332;6.610;2023-01-28T09:01:39;25.67;;;17.10;;
4704;SDS011;2366;51.332;6.610;2023-01-28T09:04:05;33.93;;;18.60;;
4704;SDS011;2366;51.332;6.610;2023-01-28T09:06:30;27.53;;;17.70;;
4704;SDS011;2366;51.332;6.610;2023-01-28T09:08:57;29.03;;;16.23;;
4704;SDS011;2366;51.332;6.610;2023-01-28T09:11:26;29.95;;;18.67;;
4704;SDS011;2366;51.332;6.610;2023-01-28T09:13:52;32.38;;;18.40;;
4704;SDS011;2366;51.332;6.610;2023-01-28T09:16:18;27.43;;;15.90;;
4704;SDS011;2366;51.332;6.610;2023-01-28T09:18:43;22.03;;;14.23;;
4704;SDS011;2366;51.332;6.610;2023-01-28T09:21:09;25.30;;;16.90;;
4704;SDS011;2366;51.332;6.610;2023-01-28T09:23:35;24.60;;;15.37;;
4704;SDS011;2366;51.332;6.610;2023-01-28T09:26:02;21.70;;;15.70;;
4704;SDS011;2366;51.332;6.610;2023-01-28T09:28:28;23.15;;;14.77;;
4704;SDS011;2366;51.332;6.610;2023-01-28T09:30:59;22.97;;;15.33;;
4704;SDS011;2366;51.332;6.610;2023-01-28T09:33:29;31.33;;;17.10;;
4704;SDS011;2366;51.332;6.610;2023-01-28T09:35:55;25.00;;;15.90;;
4704;SDS011;2366;51.332;6.610;2023-01-28T09:38:20;24.83;;;15.90;;
4704;SDS011;2366;51.332;6.610;2023-01-28T09:40:45;22.60;;;14.97;;
4704;SDS011;2366;51.332;6.610;2023-01-28T09:45:44;23.25;;;15.18;;
4704;SDS011;2366;51.332;6.610;2023-01-28T09:48:13;26.02;;;16.38;;
4704;SDS011;2366;51.332;6.610;2023-01-28T09:50:42;31.45;;;18.63;;
4704;SDS011;2366;51.332;6.610;2023-01-28T09:53:15;31.88;;;16.95;;
4704;SDS011;2366;51.332;6.610;2023-01-28T09:55:54;31.83;;;16.35;;
4704;SDS011;2366;51.332;6.610;2023-01-28T09:58:24;25.15;;;16.60;;
4704;SDS011;2366;51.332;6.610;2023-01-28T10:03:29;27.88;;;19.67;;
4704;SDS011;2366;51.332;6.610;2023-01-28T10:11:38;37.10;;;21.95;;
4704;SDS011;2366;51.332;6.610;2023-01-28T10:16:45;30.88;;;19.67;;
4704;SDS011;2366;51.332;6.610;2023-01-28T10:19:23;33.42;;;22.10;;
4704;SDS011;2366;51.332;6.610;2023-01-28T10:21:56;37.10;;;24.00;;
4704;SDS011;2366;51.332;6.610;2023-01-28T10:24:28;35.20;;;24.17;;
4704;SDS011;2366;51.332;6.610;2023-01-28T10:26:58;39.92;;;22.67;;
4704;SDS011;2366;51.332;6.610;2023-01-28T10:29:26;37.73;;;23.40;;
4704;SDS011;2366;51.332;6.610;2023-01-28T10:32:05;31.40;;;20.48;;
4704;SDS011;2366;51.332;6.610;2023-01-28T10:35:00;33.45;;;25.00;;
4704;SDS011;2366;51.332;6.610;2023-01-28T10:37:27;30.98;;;21.20;;
4704;SDS011;2366;51.332;6.610;2023-01-28T10:39:57;29.20;;;19.05;;
4704;SDS011;2366;51.332;6.610;2023-01-28T10:42:28;30.98;;;21.77;;
4704;SDS011;2366;51.332;6.610;2023-01-28T10:44:56;27.90;;;19.52;;
4704;SDS011;2366;51.332;6.610;2023-01-28T10:47:34;29.55;;;18.45;;
4704;SDS011;2366;51.332;6.610;2023-01-28T10:50:05;31.50;;;16.67;;
4704;SDS011;2366;51.332;6.610;2023-01-28T10:52:50;26.10;;;17.08;;
4704;SDS011;2366;51.332;6.610;2023-01-28T10:55:17;25.23;;;17.35;;
4704;SDS011;2366;51.332;6.610;2023-01-28T10:57:42;24.73;;;17.50;;
4704;SDS011;2366;51.332;6.610;2023-01-28T11:00:16;23.80;;;17.27;;
4704;SDS011;2366;51.332;6.610;2023-01-28T11:02:48;26.35;;;18.60;;
4704;SDS011;2366;51.332;6.610;2023-01-28T11:05:18;29.10;;;18.83;;
4704;SDS011;2366;51.332;6.610;2023-01-28T11:07:46;27.27;;;17.48;;
4704;SDS011;2366;51.332;6.610;2023-01-28T11:10:22;28.20;;;18.17;;
4704;SDS011;2366;51.332;6.610;2023-01-28T11:12:56;29.02;;;18.50;;
4704;SDS011;2366;51.332;6.610;2023-01-28T11:15:23;19.15;;;12.43;;
4704;SDS011;2366;51.332;6.610;2023-01-28T11:17:59;24.33;;;16.73;;
4704;SDS011;2366;51.332;6.610;2023-01-28T11:20:36;27.70;;;17.73;;
4704;SDS011;2366;51.332;6.610;2023-01-28T11:23:05;33.58;;;20.30;;
4704;SDS011;2366;51.332;6.610;2023-01-28T11:25:34;30.13;;;19.50;;
4704;SDS011;2366;51.332;6.610;2023-01-28T11:28:02;27.38;;;17.80;;
4704;SDS011;2366;51.332;6.610;2023-01-28T11:30:32;28.80;;;17.23;;
4704;SDS011;2366;51.332;6.610;2023-01-28T11:33:15;23.25;;;15.35;;
4704;SDS011;2366;51.332;6.610;2023-01-28T11:35:51;26.65;;;17.13;;
4704;SDS011;2366;51.332;6.610;2023-01-28T11:38:22;33.97;;;16.17;;
4704;SDS011;2366;51.332;6.610;2023-01-28T11:40:49;25.25;;;15.45;;
4704;SDS011;2366;51.332;6.610;2023-01-28T11:43:16;32.33;;;18.08;;
4704;SDS011;2366;51.332;6.610;2023-01-28T11:45:50;25.10;;;16.90;;
4704;SDS011;2366;51.332;6.610;2023-01-28T11:48:23;26.52;;;16.02;;
4704;SDS011;2366;51.332;6.610;2023-01-28T11:51:03;26.77;;;16.88;;
4704;SDS011;2366;51.332;6.610;2023-01-28T12:02:17;26.25;;;17.42;;
4704;SDS011;2366;51.332;6.610;2023-01-28T12:07:39;30.70;;;18.63;;
4704;SDS011;2366;51.332;6.610;2023-01-28T12:18:24;25.80;;;17.02;;
4704;SDS011;2366;51.332;6.610;2023-01-28T12:26:33;25.83;;;17.35;;
4704;SDS011;2366;51.332;6.610;2023-01-28T12:32:26;31.27;;;21.83;;
4704;SDS011;2366;51.332;6.610;2023-01-28T12:42:53;31.42;;;19.90;;
4704;SDS011;2366;51.332;6.610;2023-01-28T12:45:37;29.92;;;21.15;;
4704;SDS011;2366;51.332;6.610;2023-01-28T12:50:50;37.50;;;21.75;;
4704;SDS011;2366;51.332;6.610;2023-01-28T12:55:53;34.72;;;22.17;;
4704;SDS011;2366;51.332;6.610;2023-01-28T12:58:30;32.35;;;22.58;;
4704;SDS011;2366;51.332;6.610;2023-01-28T13:01:20;36.35;;;24.25;;
4704;SDS011;2366;51.332;6.610;2023-01-28T13:04:03;36.00;;;24.33;;
4704;SDS011;2366;51.332;6.610;2023-01-28T13:06:37;36.97;;;21.65;;
4704;SDS011;2366;51.332;6.610;2023-01-28T13:09:14;36.75;;;21.98;;
4704;SDS011;2366;51.332;6.610;2023-01-28T13:11:42;32.05;;;20.58;;
4704;SDS011;2366;51.332;6.610;2023-01-28T13:14:11;39.15;;;24.48;;
4704;SDS011;2366;51.332;6.610;2023-01-28T13:16:37;36.05;;;23.00;;
4704;SDS011;2366;51.332;6.610;2023-01-28T13:19:24;29.97;;;21.63;;
4704;SDS011;2366;51.332;6.610;2023-01-28T13:21:49;34.53;;;21.90;;
4704;SDS011;2366;51.332;6.610;2023-01-28T13:26:45;31.67;;;20.67;;
4704;SDS011;2366;51.332;6.610;2023-01-28T13:31:51;28.15;;;20.52;;
4704;SDS011;2366;51.332;6.610;2023-01-28T13:34:29;23.25;;;17.40;;
4704;SDS011;2366;51.332;6.610;2023-01-28T13:37:01;22.67;;;17.23;;
4704;SDS011;2366;51.332;6.610;2023-01-28T13:39:29;27.80;;;18.90;;
4704;SDS011;2366;51.332;6.610;2023-01-28T13:44:54;39.03;;;23.45;;
4704;SDS011;2366;51.332;6.610;2023-01-28T13:47:32;39.25;;;25.05;;
4704;SDS011;2366;51.332;6.610;2023-01-28T13:50:10;37.70;;;24.25;;
4704;SDS011;2366;51.332;6.610;2023-01-28T13:52:43;38.33;;;25.50;;
4704;SDS011;2366;51.332;6.610;2023-01-28T13:55:16;38.28;;;26.15;;
4704;SDS011;2366;51.332;6.610;2023-01-28T14:10:58;41.42;;;25.77;;
4704;SDS011;2366;51.332;6.610;2023-01-28T14:16:46;38.58;;;26.85;;
4704;SDS011;2366;51.332;6.610;2023-01-28T14:19:24;37.83;;;27.00;;
4704;SDS011;2366;51.332;6.610;2023-01-28T14:21:52;46.08;;;27.65;;
4704;SDS011;2366;51.332;6.610;2023-01-28T14:24:18;38.37;;;26.43;;
4704;SDS011;2366;51.332;6.610;2023-01-28T14:29:43;40.55;;;26.02;;
4704;SDS011;2366;51.332;6.610;2023-01-28T14:32:24;47.83;;;29.25;;
4704;SDS011;2366;51.332;6.610;2023-01-28T14:34:52;50.25;;;30.13;;
4704;SDS011;2366;51.332;6.610;2023-01-28T14:37:20;46.20;;;29.58;;
4704;SDS011;2366;51.332;6.610;2023-01-28T14:40:02;48.78;;;28.95;;
4704;SDS011;2366;51.332;6.610;2023-01-28T14:42:40;42.85;;;26.75;;
4704;SDS011;2366;51.332;6.610;2023-01-28T14:48:12;45.40;;;28.35;;
4704;SDS011;2366;51.332;6.610;2023-01-28T14:56:41;56.75;;;29.10;;
4704;SDS011;2366;51.332;6.610;2023-01-28T14:59:23;42.95;;;25.88;;
4704;SDS011;2366;51.332;6.610;2023-01-28T15:01:58;48.92;;;29.67;;
4704;SDS011;2366;51.332;6.610;2023-01-28T15:04:28;49.13;;;26.95;;
4704;SDS011;2366;51.332;6.610;2023-01-28T15:06:55;46.00;;;26.75;;
4704;SDS011;2366;51.332;6.610;2023-01-28T15:09:25;42.35;;;28.02;;
4704;SDS011;2366;51.332;6.610;2023-01-28T15:11:51;44.37;;;26.30;;
4704;SDS011;2366;51.332;6.610;2023-01-28T15:14:25;43.63;;;28.60;;
4704;SDS011;2366;51.332;6.610;2023-01-28T15:16:54;46.33;;;24.77;;
4704;SDS011;2366;51.332;6.610;2023-01-28T15:19:23;42.33;;;25.48;;
4704;SDS011;2366;51.332;6.610;2023-01-28T15:21:56;44.03;;;26.02;;
4704;SDS011;2366;51.332;6.610;2023-01-28T15:24:24;44.35;;;27.95;;
4704;SDS011;2366;51.332;6.610;2023-01-28T15:26:50;45.77;;;28.63;;
4704;SDS011;2366;51.332;6.610;2023-01-28T15:29:21;47.42;;;28.40;;
4704;SDS011;2366;51.332;6.610;2023-01-28T15:31:48;42.75;;;26.13;;
4704;SDS011;2366;51.332;6.610;2023-01-28T15:34:15;44.72;;;28.95;;
4704;SDS011;2366;51.332;6.610;2023-01-28T15:36:43;42.17;;;27.73;;
4704;SDS011;2366;51.332;6.610;2023-01-28T15:39:12;43.95;;;26.90;;
4704;SDS011;2366;51.332;6.610;2023-01-28T15:41:40;43.55;;;27.40;;
4704;SDS011;2366;51.332;6.610;2023-01-28T15:44:14;46.72;;;28.00;;
4704;SDS011;2366;51.332;6.610;2023-01-28T15:46:42;51.95;;;32.20;;
4704;SDS011;2366;51.332;6.610;2023-01-28T15:49:12;50.73;;;31.50;;
4704;SDS011;2366;51.332;6.610;2023-01-28T15:51:39;50.17;;;26.85;;
4704;SDS011;2366;51.332;6.610;2023-01-28T15:54:08;57.90;;;31.60;;
4704;SDS011;2366;51.332;6.610;2023-01-28T15:56:35;51.65;;;29.17;;
4704;SDS011;2366;51.332;6.610;2023-01-28T15:59:34;51.65;;;30.08;;
4704;SDS011;2366;51.332;6.610;2023-01-28T16:04:43;42.17;;;23.95;;
4704;SDS011;2366;51.332;6.610;2023-01-28T16:07:19;40.13;;;25.67;;
4704;SDS011;2366;51.332;6.610;2023-01-28T16:09:44;48.20;;;28.53;;
4704;SDS011;2366;51.332;6.610;2023-01-28T16:12:17;46.90;;;26.23;;
4704;SDS011;2366;51.332;6.610;2023-01-28T16:14:44;48.67;;;26.48;;
4704;SDS011;2366;51.332;6.610;2023-01-28T16:17:23;46.80;;;25.75;;
4704;SDS011;2366;51.332;6.610;2023-01-28T16:20:00;47.92;;;26.75;;
4704;SDS011;2366;51.332;6.610;2023-01-28T16:22:36;48.33;;;27.55;;
4704;SDS011;2366;51.332;6.610;2023-01-28T16:27:50;46.83;;;26.50;;
4704;SDS011;2366;51.332;6.610;2023-01-28T16:30:15;43.80;;;27.30;;
4704;SDS011;2366;51.332;6.610;2023-01-28T16:32:41;50.07;;;27.57;;
4704;SDS011;2366;51.332;6.610;2023-01-28T16:35:14;45.75;;;27.48;;
4704;SDS011;2366;51.332;6.610;2023-01-28T16:37:42;49.63;;;27.48;;
4704;SDS011;2366;51.332;6.610;2023-01-28T16:40:09;52.92;;;29.27;;
4704;SDS011;2366;51.332;6.610;2023-01-28T16:42:37;58.17;;;31.83;;
4704;SDS011;2366;51.332;6.610;2023-01-28T16:45:02;48.40;;;27.57;;
4704;SDS011;2366;51.332;6.610;2023-01-28T16:47:28;48.00;;;28.15;;
4704;SDS011;2366;51.332;6.610;2023-01-28T16:49:54;48.83;;;27.90;;
4704;SDS011;2366;51.332;6.610;2023-01-28T16:52:19;54.47;;;30.50;;
4704;SDS011;2366;51.332;6.610;2023-01-28T16:54:44;44.77;;;27.43;;
4704;SDS011;2366;51.332;6.610;2023-01-28T16:57:12;50.90;;;29.70;;
4704;SDS011;2366;51.332;6.610;2023-01-28T16:59:40;55.17;;;27.98;;
4704;SDS011;2366;51.332;6.610;2023-01-28T17:02:07;50.57;;;28.87;;